Time;durP1;ratioP1;P1;durP2;ratioP2;P2;SDS_P1;SDS_P2;PMS_P1;PMS_P2;Temp;Humidity;BMP_temperature;BMP_pressure;BME280_temperature;BME280_humidity;BME280_pressure;Samples;Min_cycle;Max_cycle;Signal;HPM_P1;HPM_P2
2022/05/20 00:00:25;;;;;;;0.50;0.50;;;;;;;;;;4911208;29;20050;-92
2022/05/20 00:02:51;;;;;;;0.10;0.10;;;;;;;;;;4910447;29;20047;-93
2022/05/20 00:05:17;;;;;;;0.22;0.22;;;;;;;;;;4910862;29;20046;-92
2022/05/20 00:07:43;;;;;;;0.10;0.10;;;;;;;;;;4910565;29;20530;-94
2022/05/20 00:10:10;;;;;;;0.10;0.10;;;;;;;;;;4926942;29;20079;-93
2022/05/20 00:12:36;;;;;;;0.10;0.10;;;;;;;;;;4910602;29;20058;-94
2022/05/20 00:15:03;;;;;;;0.10;0.10;;;;;;;;;;4911142;29;20368;-93
2022/05/20 00:17:29;;;;;;;0.20;0.20;;;;;;;;;;4910741;29;20046;-91
2022/05/20 00:19:55;;;;;;;0.10;0.10;;;;;;;;;;4925327;29;20039;-93
2022/05/20 00:22:21;;;;;;;0.38;0.38;;;;;;;;;;4925871;29;20138;-93
2022/05/20 00:27:31;;;;;;;0.10;0.10;;;;;;;;;;4928833;29;20055;-93
2022/05/20 00:29:58;;;;;;;0.32;0.32;;;;;;;;;;4910505;29;20367;-93
2022/05/20 00:32:24;;;;;;;0.10;0.10;;;;;;;;;;4910602;29;20046;-94
2022/05/20 00:34:50;;;;;;;0.10;0.10;;;;;;;;;;4910244;29;20130;-92
2022/05/20 00:37:16;;;;;;;0.20;0.20;;;;;;;;;;4925770;29;20039;-94
2022/05/20 00:39:42;;;;;;;0.10;0.10;;;;;;;;;;4926198;29;20170;-93
2022/05/20 00:42:15;;;;;;;0.10;0.10;;;;;;;;;;4910130;29;20043;-94
2022/05/20 00:44:41;;;;;;;0.13;0.13;;;;;;;;;;4911399;29;20050;-93
2022/05/20 00:47:08;;;;;;;0.10;0.10;;;;;;;;;;4909657;29;20058;-93
2022/05/20 00:49:34;;;;;;;0.10;0.10;;;;;;;;;;4909775;29;20046;-93
2022/05/20 00:52:00;;;;;;;0.30;0.30;;;;;;;;;;4925950;29;20047;-93
2022/05/20 00:54:56;;;;;;;0.10;0.10;;;;;;;;;;4910293;29;20082;-93
2022/05/20 00:57:25;;;;;;;0.10;0.10;;;;;;;;;;4906095;29;20142;-94
2022/05/20 00:59:53;;;;;;;0.10;0.10;;;;;;;;;;4909760;29;20098;-93
2022/05/20 01:02:19;;;;;;;0.10;0.10;;;;;;;;;;4910288;29;20047;-94
2022/05/20 01:04:45;;;;;;;0.10;0.10;;;;;;;;;;4908193;29;20077;-93
2022/05/20 01:07:11;;;;;;;0.10;0.10;;;;;;;;;;4909858;29;20075;-94
2022/05/20 01:09:38;;;;;;;0.10;0.10;;;;;;;;;;4925377;29;20040;-93
2022/05/20 01:12:05;;;;;;;0.10;0.10;;;;;;;;;;4909577;29;20451;-93
2022/05/20 01:14:31;;;;;;;0.10;0.10;;;;;;;;;;4925301;29;20053;-93
2022/05/20 01:16:57;;;;;;;0.10;0.10;;;;;;;;;;4909426;29;20130;-94
2022/05/20 01:19:30;;;;;;;0.10;0.10;;;;;;;;;;4925302;29;20075;-94
2022/05/20 01:21:56;;;;;;;0.10;0.10;;;;;;;;;;4924996;28;20063;-94
2022/05/20 01:24:22;;;;;;;0.20;0.20;;;;;;;;;;4909334;29;20055;-93
2022/05/20 01:26:48;;;;;;;0.10;0.10;;;;;;;;;;4909317;29;20043;-94
2022/05/20 01:29:14;;;;;;;0.10;0.10;;;;;;;;;;4909549;29;20043;-95
2022/05/20 01:31:41;;;;;;;0.17;0.17;;;;;;;;;;4909112;28;20475;-94
2022/05/20 01:34:07;;;;;;;0.13;0.13;;;;;;;;;;4909414;29;20039;-93
2022/05/20 01:36:33;;;;;;;0.10;0.10;;;;;;;;;;4909223;29;20094;-93
2022/05/20 01:39:00;;;;;;;0.10;0.10;;;;;;;;;;4925353;29;20051;-93
2022/05/20 01:41:35;;;;;;;0.10;0.10;;;;;;;;;;4909349;29;20541;-94
2022/05/20 01:44:04;;;;;;;0.10;0.10;;;;;;;;;;4909087;29;20047;-93
2022/05/20 01:46:36;;;;;;;0.10;0.10;;;;;;;;;;4925073;29;20039;-93
2022/05/20 01:49:06;;;;;;;0.10;0.10;;;;;;;;;;4924928;29;20093;-94
2022/05/20 01:51:34;;;;;;;0.10;0.10;;;;;;;;;;4909457;28;20035;-93
2022/05/20 01:54:11;;;;;;;0.10;0.10;;;;;;;;;;4908883;29;20046;-93
2022/05/20 01:57:04;;;;;;;0.10;0.10;;;;;;;;;;4909377;29;20529;-94
2022/05/20 01:59:39;;;;;;;0.10;0.10;;;;;;;;;;4924618;29;20051;-94
2022/05/20 02:02:16;;;;;;;0.10;0.10;;;;;;;;;;4908846;29;20183;-93
2022/05/20 02:04:44;;;;;;;0.10;0.10;;;;;;;;;;4908985;29;20085;-94
2022/05/20 02:07:11;;;;;;;0.10;0.10;;;;;;;;;;4908961;29;20137;-95
2022/05/20 02:09:48;;;;;;;0.10;0.10;;;;;;;;;;4908826;29;20514;-93
2022/05/20 02:12:15;;;;;;;0.10;0.10;;;;;;;;;;4908519;29;20074;-93
2022/05/20 02:14:47;;;;;;;0.10;0.10;;;;;;;;;;4908389;28;20039;-94
2022/05/20 02:17:25;;;;;;;0.10;0.10;;;;;;;;;;4908594;29;20054;-94
2022/05/20 02:19:59;;;;;;;0.10;0.10;;;;;;;;;;4924276;29;20050;-94
2022/05/20 02:22:27;;;;;;;0.10;0.10;;;;;;;;;;4923898;29;20142;-94
2022/05/20 02:24:54;;;;;;;0.10;0.10;;;;;;;;;;4908351;29;20043;-94
2022/05/20 02:27:22;;;;;;;0.10;0.10;;;;;;;;;;4908092;29;20055;-94
2022/05/20 02:29:51;;;;;;;0.10;0.10;;;;;;;;;;4908002;29;20040;-94
2022/05/20 02:32:25;;;;;;;0.10;0.10;;;;;;;;;;4907818;29;20063;-93
2022/05/20 02:34:52;;;;;;;0.10;0.10;;;;;;;;;;4907536;29;20049;-94
2022/05/20 02:37:44;;;;;;;0.10;0.10;;;;;;;;;;4908220;29;20098;-93
2022/05/20 02:40:11;;;;;;;0.10;0.10;;;;;;;;;;4935258;29;20058;-94
2022/05/20 02:42:37;;;;;;;0.10;0.10;;;;;;;;;;4907459;29;20376;-93
2022/05/20 02:45:03;;;;;;;0.10;0.10;;;;;;;;;;4907735;29;20078;-93
2022/05/20 02:47:31;;;;;;;0.10;0.10;;;;;;;;;;4908161;29;20069;-94
2022/05/20 02:49:58;;;;;;;0.10;0.10;;;;;;;;;;4908342;29;20043;-93
2022/05/20 02:52:24;;;;;;;0.20;0.20;;;;;;;;;;4923430;29;20078;-94
2022/05/20 02:54:55;;;;;;;0.10;0.10;;;;;;;;;;4907841;29;20498;-93
2022/05/20 02:57:24;;;;;;;0.10;0.10;;;;;;;;;;4905195;29;20054;-93
2022/05/20 03:05:19;;;;;;;0.10;0.10;;;;;;;;;;4925553;29;20047;-94
2022/05/20 03:07:45;;;;;;;0.10;0.10;;;;;;;;;;4907668;29;20078;-94
2022/05/20 03:10:11;;;;;;;0.10;0.10;;;;;;;;;;4907566;29;20081;-95
2022/05/20 03:12:37;;;;;;;0.10;0.10;;;;;;;;;;4907331;29;20047;-95
2022/05/20 03:15:04;;;;;;;0.10;0.10;;;;;;;;;;4907837;29;20047;-93
2022/05/20 03:17:31;;;;;;;0.10;0.10;;;;;;;;;;4907781;29;20043;-95
2022/05/20 03:19:57;;;;;;;0.10;0.10;;;;;;;;;;4907540;29;20081;-93
2022/05/20 03:22:23;;;;;;;0.10;0.10;;;;;;;;;;4907184;29;20411;-93
2022/05/20 03:24:49;;;;;;;0.10;0.10;;;;;;;;;;4907378;29;20050;-94
2022/05/20 03:27:17;;;;;;;0.10;0.10;;;;;;;;;;4906714;29;20043;-93
2022/05/20 03:29:44;;;;;;;0.10;0.10;;;;;;;;;;4907274;29;20031;-94
2022/05/20 03:32:10;;;;;;;0.10;0.10;;;;;;;;;;4938792;29;20479;-95
2022/05/20 03:34:37;;;;;;;0.10;0.10;;;;;;;;;;4907800;29;20079;-93
2022/05/20 03:37:03;;;;;;;0.10;0.10;;;;;;;;;;4906555;29;20048;-93
2022/05/20 03:39:29;;;;;;;0.15;0.15;;;;;;;;;;4922726;29;20558;-92
2022/05/20 03:41:56;;;;;;;0.10;0.10;;;;;;;;;;4922541;28;20082;-93
2022/05/20 03:44:23;;;;;;;0.20;0.20;;;;;;;;;;4907166;29;20047;-94
2022/05/20 03:46:51;;;;;;;0.10;0.10;;;;;;;;;;4907248;29;20137;-92
2022/05/20 03:49:17;;;;;;;0.10;0.10;;;;;;;;;;4907591;29;20043;-94
2022/05/20 03:51:45;;;;;;;0.10;0.10;;;;;;;;;;4907479;28;20040;-93
2022/05/20 03:54:11;;;;;;;0.10;0.10;;;;;;;;;;4907211;29;20074;-94
2022/05/20 03:56:40;;;;;;;0.10;0.10;;;;;;;;;;4923180;29;20514;-94
2022/05/20 03:59:08;;;;;;;0.10;0.10;;;;;;;;;;4907566;29;20086;-94
2022/05/20 04:04:19;;;;;;;0.20;0.20;;;;;;;;;;4925525;29;20425;-94
2022/05/20 04:06:45;;;;;;;0.10;0.10;;;;;;;;;;4906805;29;20055;-93
2022/05/20 04:09:11;;;;;;;0.10;0.10;;;;;;;;;;4906886;29;20039;-94
2022/05/20 04:11:38;;;;;;;0.10;0.10;;;;;;;;;;4923135;28;20086;-93
2022/05/20 04:14:04;;;;;;;0.10;0.10;;;;;;;;;;4907257;29;20039;-92
2022/05/20 04:16:30;;;;;;;0.10;0.10;;;;;;;;;;4906921;29;20046;-92
2022/05/20 04:18:55;;;;;;;0.10;0.10;;;;;;;;;;4907102;29;20157;-94
2022/05/20 04:21:22;;;;;;;0.10;0.10;;;;;;;;;;4907703;29;20075;-94
2022/05/20 04:23:48;;;;;;;0.10;0.10;;;;;;;;;;4906859;29;20054;-94
2022/05/20 04:26:14;;;;;;;0.10;0.10;;;;;;;;;;4906949;29;20039;-95
2022/05/20 04:28:40;;;;;;;0.10;0.10;;;;;;;;;;4907013;29;20314;-93
2022/05/20 04:31:09;;;;;;;0.10;0.10;;;;;;;;;;4907306;29;20510;-93
2022/05/20 04:33:35;;;;;;;0.10;0.10;;;;;;;;;;4922596;29;20604;-94
2022/05/20 04:36:01;;;;;;;0.10;0.10;;;;;;;;;;4906889;29;20043;-93
2022/05/20 04:38:27;;;;;;;0.10;0.10;;;;;;;;;;4908214;29;20116;-93
2022/05/20 04:49:08;;;;;;;0.10;0.10;;;;;;;;;;4928807;29;20377;-93
2022/05/20 04:51:34;;;;;;;0.10;0.10;;;;;;;;;;4910023;28;20039;-93
2022/05/20 04:56:44;;;;;;;0.10;0.10;;;;;;;;;;4927993;29;20043;-94
2022/05/20 04:59:10;;;;;;;0.10;0.10;;;;;;;;;;4909839;29;20070;-94
2022/05/20 05:01:36;;;;;;;0.10;0.10;;;;;;;;;;4909681;28;20043;-94
2022/05/20 05:04:02;;;;;;;0.10;0.10;;;;;;;;;;4927291;29;20043;-94
2022/05/20 05:06:31;;;;;;;0.10;0.10;;;;;;;;;;4910074;29;20047;-93
2022/05/20 05:08:57;;;;;;;0.10;0.10;;;;;;;;;;4925532;29;20109;-93
2022/05/20 05:11:23;;;;;;;0.10;0.10;;;;;;;;;;4910295;29;20035;-93
2022/05/20 05:13:49;;;;;;;0.10;0.10;;;;;;;;;;4909812;29;20051;-94
2022/05/20 05:16:15;;;;;;;0.10;0.10;;;;;;;;;;4909361;29;20086;-94
2022/05/20 05:18:41;;;;;;;0.10;0.10;;;;;;;;;;4925308;29;20134;-93
2022/05/20 05:21:07;;;;;;;0.10;0.10;;;;;;;;;;4909549;29;20059;-93
2022/05/20 05:23:33;;;;;;;0.50;0.50;;;;;;;;;;4925413;29;20047;-94
2022/05/20 05:25:59;;;;;;;0.10;0.10;;;;;;;;;;4908590;29;20124;-93
2022/05/20 05:28:25;;;;;;;0.10;0.10;;;;;;;;;;4909365;29;20082;-94
2022/05/20 05:30:51;;;;;;;0.30;0.30;;;;;;;;;;4909485;29;20122;-93
2022/05/20 05:33:18;;;;;;;0.10;0.10;;;;;;;;;;4909030;29;20074;-93
2022/05/20 05:35:44;;;;;;;0.17;0.17;;;;;;;;;;4925334;29;20058;-93
2022/05/20 05:38:10;;;;;;;0.10;0.10;;;;;;;;;;4909019;29;20043;-94
2022/05/20 05:40:36;;;;;;;0.20;0.20;;;;;;;;;;4909846;29;20043;-95
2022/05/20 05:43:02;;;;;;;0.10;0.10;;;;;;;;;;4924607;29;20043;-93
2022/05/20 05:45:29;;;;;;;0.10;0.10;;;;;;;;;;4908955;29;20043;-94
2022/05/20 05:47:56;;;;;;;0.10;0.10;;;;;;;;;;4909330;29;20043;-94
2022/05/20 05:50:22;;;;;;;0.10;0.10;;;;;;;;;;4908332;29;20042;-94
2022/05/20 05:52:54;;;;;;;0.20;0.20;;;;;;;;;;4924665;29;20047;-94
2022/05/20 05:55:20;;;;;;;0.10;0.10;;;;;;;;;;4908959;29;20046;-94
2022/05/20 05:57:46;;;;;;;0.10;0.10;;;;;;;;;;4908813;29;20039;-94
2022/05/20 06:00:12;;;;;;;0.10;0.10;;;;;;;;;;4909095;29;20043;-94
2022/05/20 06:02:38;;;;;;;0.10;0.10;;;;;;;;;;4908919;29;20043;-94
2022/05/20 06:05:05;;;;;;;0.40;0.32;;;;;;;;;;4908753;29;20046;-94
2022/05/20 06:07:30;;;;;;;0.20;0.20;;;;;;;;;;4908312;29;20039;-94
2022/05/20 06:09:57;;;;;;;0.25;0.25;;;;;;;;;;4908617;29;20049;-94
2022/05/20 06:12:22;;;;;;;0.20;0.20;;;;;;;;;;4908873;29;20466;-95
2022/05/20 06:14:48;;;;;;;0.10;0.10;;;;;;;;;;4908561;29;20086;-94
2022/05/20 06:17:15;;;;;;;0.10;0.10;;;;;;;;;;4908676;29;20049;-94
2022/05/20 06:19:41;;;;;;;0.10;0.10;;;;;;;;;;4908638;29;20044;-94
2022/05/20 06:22:08;;;;;;;0.10;0.10;;;;;;;;;;4908155;29;20055;-94
2022/05/20 06:24:35;;;;;;;0.20;0.20;;;;;;;;;;4908283;29;20049;-95
2022/05/20 06:27:02;;;;;;;0.10;0.10;;;;;;;;;;4923631;29;20043;-95
2022/05/20 06:29:28;;;;;;;0.20;0.20;;;;;;;;;;4908427;29;20448;-94
2022/05/20 06:31:54;;;;;;;0.10;0.10;;;;;;;;;;4940070;28;20043;-94
2022/05/20 06:34:20;;;;;;;0.10;0.10;;;;;;;;;;4908136;29;20496;-94
2022/05/20 06:39:49;;;;;;;0.10;0.10;;;;;;;;;;4926049;29;20075;-94
2022/05/20 06:42:15;;;;;;;0.10;0.10;;;;;;;;;;4910155;29;20043;-94
2022/05/20 06:44:41;;;;;;;0.10;0.10;;;;;;;;;;4907852;29;20075;-93
2022/05/20 06:47:08;;;;;;;0.50;0.50;;;;;;;;;;4922963;29;20518;-95
2022/05/20 06:49:34;;;;;;;0.10;0.10;;;;;;;;;;4907539;29;20407;-94
2022/05/20 06:52:00;;;;;;;0.20;0.20;;;;;;;;;;4907515;29;20144;-92
2022/05/20 06:54:27;;;;;;;0.10;0.10;;;;;;;;;;4908260;29;20086;-94
2022/05/20 06:56:53;;;;;;;0.10;0.10;;;;;;;;;;4907836;29;20047;-94
2022/05/20 06:59:19;;;;;;;0.10;0.10;;;;;;;;;;4907194;29;20055;-95
2022/05/20 07:01:45;;;;;;;0.30;0.30;;;;;;;;;;4906692;28;20387;-94
2022/05/20 07:04:11;;;;;;;0.10;0.10;;;;;;;;;;4907696;29;20043;-93
2022/05/20 07:06:37;;;;;;;0.10;0.10;;;;;;;;;;4907326;29;20074;-94
2022/05/20 07:09:03;;;;;;;0.10;0.10;;;;;;;;;;4907570;29;20066;-94
2022/05/20 07:11:30;;;;;;;0.20;0.20;;;;;;;;;;4907593;29;20097;-95
2022/05/20 07:13:56;;;;;;;0.10;0.10;;;;;;;;;;4923443;29;20039;-94
2022/05/20 07:16:23;;;;;;;0.10;0.10;;;;;;;;;;4923344;29;20441;-95
2022/05/20 07:18:49;;;;;;;0.10;0.10;;;;;;;;;;4907359;29;20047;-94
2022/05/20 07:21:15;;;;;;;0.10;0.10;;;;;;;;;;4907199;29;20091;-94
2022/05/20 07:23:41;;;;;;;0.10;0.10;;;;;;;;;;4906743;29;20128;-94
2022/05/20 07:26:08;;;;;;;0.10;0.10;;;;;;;;;;4907057;29;20058;-93
2022/05/20 07:28:35;;;;;;;0.10;0.10;;;;;;;;;;4908480;29;20053;-94
2022/05/20 07:31:01;;;;;;;0.10;0.10;;;;;;;;;;4907839;29;20039;-93
2022/05/20 07:33:28;;;;;;;0.17;0.17;;;;;;;;;;4907851;29;20041;-94
2022/05/20 07:35:56;;;;;;;0.10;0.10;;;;;;;;;;4907769;29;20043;-93
2022/05/20 07:38:22;;;;;;;0.10;0.10;;;;;;;;;;4906666;29;20051;-93
2022/05/20 07:40:50;;;;;;;0.10;0.10;;;;;;;;;;4906546;29;20514;-93
2022/05/20 07:43:20;;;;;;;0.10;0.10;;;;;;;;;;4907158;29;20043;-94
2022/05/20 07:45:46;;;;;;;0.10;0.10;;;;;;;;;;4923059;29;20082;-94
2022/05/20 07:48:12;;;;;;;0.10;0.10;;;;;;;;;;4907149;29;20054;-94
2022/05/20 07:50:42;;;;;;;0.20;0.20;;;;;;;;;;4907356;29;20628;-95
2022/05/20 07:53:20;;;;;;;0.10;0.10;;;;;;;;;;4907144;29;20503;-94
2022/05/20 07:55:48;;;;;;;0.10;0.10;;;;;;;;;;4908942;29;20047;-94
2022/05/20 07:58:14;;;;;;;0.20;0.20;;;;;;;;;;4938827;29;20380;-93
2022/05/20 08:00:40;;;;;;;0.10;0.10;;;;;;;;;;4906579;29;20128;-93
2022/05/20 08:03:06;;;;;;;0.30;0.30;;;;;;;;;;4925859;29;20043;-93
2022/05/20 08:05:34;;;;;;;0.10;0.10;;;;;;;;;;4908527;29;20058;-94
2022/05/20 08:08:02;;;;;;;0.10;0.10;;;;;;;;;;4907568;29;20036;-93
2022/05/20 08:10:29;;;;;;;0.10;0.10;;;;;;;;;;4907009;29;20039;-94
2022/05/20 08:12:55;;;;;;;0.10;0.10;;;;;;;;;;4906925;29;20071;-94
2022/05/20 08:15:21;;;;;;;0.10;0.10;;;;;;;;;;4910734;29;20139;-94
2022/05/20 08:17:47;;;;;;;0.10;0.10;;;;;;;;;;4926023;29;20098;-94
2022/05/20 08:20:21;;;;;;;0.30;0.20;;;;;;;;;;4910425;28;20444;-93
2022/05/20 08:22:47;;;;;;;0.10;0.10;;;;;;;;;;4910961;29;20107;-94
2022/05/20 08:25:13;;;;;;;0.20;0.20;;;;;;;;;;4909865;29;20122;-93
2022/05/20 08:27:39;;;;;;;0.10;0.10;;;;;;;;;;4910304;29;20130;-93
2022/05/20 08:30:07;;;;;;;0.10;0.10;;;;;;;;;;4909417;29;20479;-94
2022/05/20 08:32:33;;;;;;;0.10;0.10;;;;;;;;;;4910621;29;20369;-94
2022/05/20 08:34:59;;;;;;;0.10;0.10;;;;;;;;;;4909941;29;20050;-93
2022/05/20 08:37:25;;;;;;;0.10;0.10;;;;;;;;;;4910258;29;20043;-93
2022/05/20 08:39:51;;;;;;;0.10;0.10;;;;;;;;;;4910076;29;20039;-93
2022/05/20 08:42:18;;;;;;;0.20;0.20;;;;;;;;;;4909938;29;20039;-93
2022/05/20 08:44:44;;;;;;;0.15;0.15;;;;;;;;;;4926197;29;20124;-93
2022/05/20 08:47:15;;;;;;;0.20;0.20;;;;;;;;;;4910095;29;20039;-93
2022/05/20 08:49:41;;;;;;;0.10;0.10;;;;;;;;;;4910026;29;20085;-94
2022/05/20 08:52:07;;;;;;;0.10;0.10;;;;;;;;;;4909795;29;20043;-93
2022/05/20 08:54:33;;;;;;;0.10;0.10;;;;;;;;;;4925600;29;20483;-94
2022/05/20 08:57:09;;;;;;;0.10;0.10;;;;;;;;;;4909732;29;20110;-94
2022/05/20 08:59:36;;;;;;;0.10;0.10;;;;;;;;;;4910205;29;20050;-94
2022/05/20 09:02:02;;;;;;;0.20;0.20;;;;;;;;;;4925226;29;20051;-94
2022/05/20 09:04:28;;;;;;;0.10;0.10;;;;;;;;;;4909650;29;20047;-94
2022/05/20 09:07:04;;;;;;;0.30;0.20;;;;;;;;;;4909616;29;20043;-93
2022/05/20 09:09:41;;;;;;;0.22;0.22;;;;;;;;;;4910134;29;20130;-94
2022/05/20 09:12:08;;;;;;;0.10;0.10;;;;;;;;;;4909805;29;20066;-95
2022/05/20 09:17:23;;;;;;;0.10;0.10;;;;;;;;;;4929987;29;20043;-93
2022/05/20 09:19:56;;;;;;;0.10;0.10;;;;;;;;;;4911254;29;20479;-95
2022/05/20 09:22:27;;;;;;;0.10;0.10;;;;;;;;;;4909102;29;20129;-94
2022/05/20 09:24:53;;;;;;;0.20;0.20;;;;;;;;;;4908527;29;20483;-95
2022/05/20 09:27:21;;;;;;;0.10;0.10;;;;;;;;;;4909552;29;20383;-95
2022/05/20 09:29:48;;;;;;;0.25;0.25;;;;;;;;;;4924684;29;20560;-93
2022/05/20 09:32:21;;;;;;;0.10;0.10;;;;;;;;;;4908389;29;20043;-95
2022/05/20 09:34:48;;;;;;;0.20;0.20;;;;;;;;;;4909293;29;20075;-94
2022/05/20 09:37:16;;;;;;;0.10;0.10;;;;;;;;;;4909247;29;20058;-95
2022/05/20 09:39:51;;;;;;;0.10;0.10;;;;;;;;;;4924706;29;20046;-94
2022/05/20 09:42:18;;;;;;;0.10;0.10;;;;;;;;;;4909089;29;20518;-94
2022/05/20 09:44:51;;;;;;;0.38;0.38;;;;;;;;;;4909118;29;20474;-94
2022/05/20 09:47:26;;;;;;;0.10;0.10;;;;;;;;;;4908978;29;20043;-94
2022/05/20 09:49:59;;;;;;;0.10;0.10;;;;;;;;;;4924585;29;20043;-94
2022/05/20 09:52:44;;;;;;;0.10;0.10;;;;;;;;;;4908893;29;20047;-95
2022/05/20 09:55:15;;;;;;;0.25;0.25;;;;;;;;;;4924252;29;20039;-94
2022/05/20 09:57:43;;;;;;;0.20;0.20;;;;;;;;;;4908856;29;20046;-94
2022/05/20 10:00:13;;;;;;;0.15;0.15;;;;;;;;;;4908968;29;20043;-94
2022/05/20 10:02:39;;;;;;;0.10;0.10;;;;;;;;;;4909024;29;20086;-94
2022/05/20 10:05:09;;;;;;;0.10;0.10;;;;;;;;;;4924387;29;20039;-94
2022/05/20 10:07:47;;;;;;;0.30;0.30;;;;;;;;;;4908433;29;20086;-95
2022/05/20 10:10:15;;;;;;;0.55;0.55;;;;;;;;;;4908844;29;20039;-94
2022/05/20 10:12:42;;;;;;;0.10;0.10;;;;;;;;;;4908624;29;20044;-94
2022/05/20 10:15:12;;;;;;;0.20;0.20;;;;;;;;;;4909083;29;20039;-95
2022/05/20 10:17:41;;;;;;;0.15;0.15;;;;;;;;;;4923984;29;20078;-93
2022/05/20 10:20:08;;;;;;;0.13;0.13;;;;;;;;;;4908137;29;20043;-93
2022/05/20 10:22:53;;;;;;;0.10;0.10;;;;;;;;;;4909821;29;20069;-94
2022/05/20 10:25:24;;;;;;;0.10;0.10;;;;;;;;;;4923982;29;20051;-95
2022/05/20 10:28:06;;;;;;;0.10;0.10;;;;;;;;;;4908630;29;20047;-94
2022/05/20 10:33:20;;;;;;;0.10;0.10;;;;;;;;;;4929798;29;20049;-94
2022/05/20 10:36:06;;;;;;;0.10;0.10;;;;;;;;;;4907886;28;20079;-94
2022/05/20 10:38:49;;;;;;;0.20;0.20;;;;;;;;;;4908988;29;20050;-92
2022/05/20 10:41:30;;;;;;;0.20;0.20;;;;;;;;;;4924039;29;20093;-92
2022/05/20 10:49:57;;;;;;;0.20;0.20;;;;;;;;;;4939514;29;20070;-93
2022/05/20 10:52:27;;;;;;;0.10;0.10;;;;;;;;;;4908282;29;20043;-93
2022/05/20 10:54:59;;;;;;;0.10;0.10;;;;;;;;;;4924547;29;20129;-93
2022/05/20 10:57:43;;;;;;;0.20;0.20;;;;;;;;;;4924265;29;20042;-93
2022/05/20 11:00:11;;;;;;;0.10;0.10;;;;;;;;;;4939162;29;20133;-93
2022/05/20 11:02:52;;;;;;;0.20;0.20;;;;;;;;;;4908373;29;20043;-95
2022/05/20 11:05:24;;;;;;;0.10;0.10;;;;;;;;;;4943081;29;20121;-95
2022/05/20 11:07:58;;;;;;;0.10;0.10;;;;;;;;;;4925262;29;20050;-93
2022/05/20 11:10:24;;;;;;;0.10;0.10;;;;;;;;;;4924232;29;20082;-94
2022/05/20 11:13:02;;;;;;;0.10;0.10;;;;;;;;;;4922467;29;20043;-91
2022/05/20 11:15:45;;;;;;;0.10;0.10;;;;;;;;;;4922510;29;20047;-93
2022/05/20 11:18:27;;;;;;;0.10;0.10;;;;;;;;;;4907928;29;20072;-91
2022/05/20 11:21:03;;;;;;;0.10;0.10;;;;;;;;;;4922552;29;20079;-91
2022/05/20 11:23:38;;;;;;;0.10;0.10;;;;;;;;;;4922555;29;20094;-91
2022/05/20 11:26:10;;;;;;;0.10;0.10;;;;;;;;;;4922738;29;20074;-96
2022/05/20 11:28:49;;;;;;;0.20;0.20;;;;;;;;;;4923216;29;20046;-90
2022/05/20 11:31:35;;;;;;;0.20;0.20;;;;;;;;;;4922861;29;20043;-91
2022/05/20 11:34:13;;;;;;;0.20;0.20;;;;;;;;;;4922208;29;20043;-90
2022/05/20 11:36:49;;;;;;;0.10;0.10;;;;;;;;;;4938147;29;20082;-91
2022/05/20 11:39:41;;;;;;;0.10;0.10;;;;;;;;;;4906642;29;20431;-90
2022/05/20 11:42:24;;;;;;;0.10;0.10;;;;;;;;;;4918519;29;20097;-91
2022/05/20 11:44:53;;;;;;;0.10;0.10;;;;;;;;;;4938330;29;20051;-93
2022/05/20 11:47:38;;;;;;;0.20;0.20;;;;;;;;;;4922810;28;20066;-94
2022/05/20 11:50:11;;;;;;;0.20;0.20;;;;;;;;;;4927502;29;20035;-94
2022/05/20 11:52:46;;;;;;;0.13;0.13;;;;;;;;;;4916462;29;20074;-92
2022/05/20 11:55:33;;;;;;;0.10;0.10;;;;;;;;;;4927525;29;20047;-94
2022/05/20 11:58:03;;;;;;;0.22;0.22;;;;;;;;;;4926651;29;20065;-92
2022/05/20 12:00:29;;;;;;;0.10;0.10;;;;;;;;;;4910901;29;20054;-94
2022/05/20 12:03:11;;;;;;;0.10;0.10;;;;;;;;;;4911663;29;20419;-94
2022/05/20 12:05:40;;;;;;;0.10;0.10;;;;;;;;;;4910960;29;20067;-93
2022/05/20 12:08:09;;;;;;;0.10;0.10;;;;;;;;;;4910493;29;20129;-94
2022/05/20 12:10:56;;;;;;;0.10;0.10;;;;;;;;;;4910749;29;20392;-92
2022/05/20 12:13:47;;;;;;;0.20;0.20;;;;;;;;;;4928742;29;20496;-95
2022/05/20 12:16:16;;;;;;;0.10;0.10;;;;;;;;;;4927188;29;20046;-95
2022/05/20 12:24:38;;;;;;;0.10;0.10;;;;;;;;;;4942230;29;20058;-94
2022/05/20 12:27:15;;;;;;;0.10;0.10;;;;;;;;;;4910186;29;20043;-93
2022/05/20 12:29:43;;;;;;;0.10;0.10;;;;;;;;;;4911004;29;20070;-91
2022/05/20 12:32:29;;;;;;;0.10;0.10;;;;;;;;;;4925018;29;20058;-93
2022/05/20 12:35:05;;;;;;;0.10;0.10;;;;;;;;;;4926138;29;20043;-93
2022/05/20 12:37:44;;;;;;;0.10;0.10;;;;;;;;;;4925602;29;20102;-93
2022/05/20 12:40:25;;;;;;;0.10;0.10;;;;;;;;;;4925578;29;20043;-94
2022/05/20 12:43:03;;;;;;;0.10;0.10;;;;;;;;;;4925177;29;20047;-94
2022/05/20 12:45:57;;;;;;;0.10;0.10;;;;;;;;;;4925688;29;20513;-94
2022/05/20 12:48:28;;;;;;;0.10;0.10;;;;;;;;;;4942196;29;20050;-93
2022/05/20 12:51:01;;;;;;;0.10;0.10;;;;;;;;;;4909737;29;20045;-94
2022/05/20 12:53:30;;;;;;;0.20;0.20;;;;;;;;;;4910302;29;20046;-93
2022/05/20 12:55:57;;;;;;;0.17;0.17;;;;;;;;;;4909874;29;20147;-93
2022/05/20 12:58:27;;;;;;;0.10;0.10;;;;;;;;;;4909634;29;20043;-94
2022/05/20 13:00:54;;;;;;;0.10;0.10;;;;;;;;;;4923887;28;20081;-92
2022/05/20 13:03:37;;;;;;;0.10;0.10;;;;;;;;;;4924772;29;20055;-92
2022/05/20 13:06:16;;;;;;;0.10;0.10;;;;;;;;;;4909865;29;20408;-92
2022/05/20 13:08:46;;;;;;;0.20;0.20;;;;;;;;;;4925248;29;20039;-92
2022/05/20 13:11:13;;;;;;;0.10;0.10;;;;;;;;;;4925628;29;20045;-93
2022/05/20 13:13:39;;;;;;;0.10;0.10;;;;;;;;;;4909235;29;20090;-91
2022/05/20 13:16:06;;;;;;;0.10;0.10;;;;;;;;;;4924800;29;20086;-91
2022/05/20 13:18:33;;;;;;;0.10;0.10;;;;;;;;;;4909216;29;20043;-92
2022/05/20 13:21:00;;;;;;;0.10;0.10;;;;;;;;;;4924895;29;20105;-91
2022/05/20 13:23:27;;;;;;;0.10;0.10;;;;;;;;;;4908708;29;20082;-91
2022/05/20 13:25:53;;;;;;;0.10;0.10;;;;;;;;;;4911929;29;20377;-92
2022/05/20 13:28:25;;;;;;;0.20;0.20;;;;;;;;;;4909469;29;20182;-91
2022/05/20 13:30:51;;;;;;;0.30;0.30;;;;;;;;;;4908985;29;20046;-91
2022/05/20 13:33:17;;;;;;;0.10;0.10;;;;;;;;;;4908939;29;20043;-92
2022/05/20 13:35:49;;;;;;;0.10;0.10;;;;;;;;;;4908986;29;20043;-90
2022/05/20 13:38:15;;;;;;;0.10;0.10;;;;;;;;;;4919689;29;20054;-91
2022/05/20 13:40:41;;;;;;;0.45;0.40;;;;;;;;;;4921014;29;20065;-90
2022/05/20 13:43:09;;;;;;;0.10;0.10;;;;;;;;;;4923816;29;20507;-90
2022/05/20 13:51:05;;;;;;;0.10;0.10;;;;;;;;;;4925871;29;20047;-90
2022/05/20 13:53:32;;;;;;;0.10;0.10;;;;;;;;;;4923721;29;20403;-89
2022/05/20 13:55:58;;;;;;;0.10;0.10;;;;;;;;;;4923523;29;20138;-90
2022/05/20 13:58:24;;;;;;;0.10;0.10;;;;;;;;;;4923672;29;20082;-90
2022/05/20 14:00:50;;;;;;;0.13;0.13;;;;;;;;;;4923598;29;20475;-90
2022/05/20 14:03:21;;;;;;;0.10;0.10;;;;;;;;;;4923027;29;20047;-89
2022/05/20 14:06:16;;;;;;;0.28;0.28;;;;;;;;;;4939298;29;20510;-89
2022/05/20 14:08:45;;;;;;;0.10;0.10;;;;;;;;;;4904080;29;20399;-90
2022/05/20 14:11:12;;;;;;;0.10;0.10;;;;;;;;;;4903627;29;20040;-89
2022/05/20 14:13:40;;;;;;;0.15;0.15;;;;;;;;;;4919743;29;20047;-89
2022/05/20 14:16:10;;;;;;;0.10;0.10;;;;;;;;;;4903767;29;20039;-91
2022/05/20 14:18:37;;;;;;;0.10;0.10;;;;;;;;;;4904345;29;20055;-90
2022/05/20 14:21:11;;;;;;;0.10;0.10;;;;;;;;;;4919451;29;20333;-89
2022/05/20 14:23:45;;;;;;;0.10;0.10;;;;;;;;;;4904002;29;20123;-90
2022/05/20 14:26:12;;;;;;;0.10;0.10;;;;;;;;;;4919534;29;20048;-90
2022/05/20 14:28:41;;;;;;;0.10;0.10;;;;;;;;;;4919651;29;20044;-89
2022/05/20 14:31:07;;;;;;;0.10;0.10;;;;;;;;;;4919341;29;20055;-89
2022/05/20 14:33:38;;;;;;;0.10;0.10;;;;;;;;;;4903504;29;20543;-89
2022/05/20 14:36:05;;;;;;;0.10;0.10;;;;;;;;;;4903822;29;20043;-90
2022/05/20 14:38:36;;;;;;;0.10;0.10;;;;;;;;;;4903704;29;20036;-89
2022/05/20 14:41:03;;;;;;;0.10;0.10;;;;;;;;;;4919662;29;20282;-88
2022/05/20 14:43:34;;;;;;;0.10;0.10;;;;;;;;;;4903517;29;20103;-90
2022/05/20 14:46:00;;;;;;;0.10;0.10;;;;;;;;;;4903560;29;20094;-90
2022/05/20 14:48:38;;;;;;;0.20;0.20;;;;;;;;;;4903509;29;20040;-89
2022/05/20 14:51:04;;;;;;;0.10;0.10;;;;;;;;;;4903440;29;20377;-90
2022/05/20 14:53:31;;;;;;;0.10;0.10;;;;;;;;;;4903800;29;20038;-90
2022/05/20 14:55:58;;;;;;;0.10;0.10;;;;;;;;;;4903941;29;20066;-89
2022/05/20 14:58:24;;;;;;;0.52;0.52;;;;;;;;;;4919849;29;20419;-92
2022/05/20 15:00:59;;;;;;;0.20;0.20;;;;;;;;;;4935208;29;20035;-91
2022/05/20 15:03:26;;;;;;;0.10;0.10;;;;;;;;;;4919469;29;20051;-89
2022/05/20 15:05:52;;;;;;;0.10;0.10;;;;;;;;;;4903554;29;20050;-90
2022/05/20 15:08:19;;;;;;;0.10;0.10;;;;;;;;;;4903620;29;20099;-90
2022/05/20 15:10:52;;;;;;;0.10;0.10;;;;;;;;;;4903398;29;20090;-91
2022/05/20 15:13:18;;;;;;;0.10;0.10;;;;;;;;;;4919364;29;20043;-92
2022/05/20 15:15:44;;;;;;;0.15;0.15;;;;;;;;;;4903289;29;20511;-90
2022/05/20 15:18:11;;;;;;;0.20;0.20;;;;;;;;;;4904912;29;20099;-92
2022/05/20 15:20:41;;;;;;;0.10;0.10;;;;;;;;;;4903543;29;20860;-92
2022/05/20 15:23:10;;;;;;;0.20;0.20;;;;;;;;;;4903627;29;20047;-94
2022/05/20 15:25:36;;;;;;;0.28;0.28;;;;;;;;;;4904788;29;20054;-94
2022/05/20 15:28:47;;;;;;;0.10;0.10;;;;;;;;;;4904184;29;20039;-96
2022/05/20 15:34:51;;;;;;;0.10;0.10;;;;;;;;;;4935353;29;20377;-94
2022/05/20 15:36:23;;;;;;;0.17;0.17;;;;;;;;;;4921592;29;20052;-93
2022/05/20 15:38:49;;;;;;;0.30;0.30;;;;;;;;;;4904772;29;20126;-93
2022/05/20 15:41:15;;;;;;;0.17;0.17;;;;;;;;;;4903205;29;20054;-92
2022/05/20 15:43:41;;;;;;;0.10;0.10;;;;;;;;;;4903686;29;20040;-90
2022/05/20 15:46:07;;;;;;;0.10;0.10;;;;;;;;;;4918386;29;20044;-90